Crossville, TN (38572)

12:33 PM CDT on July 28, 2016 (GMT -0500)
Brookstone Dr. | | Change Station

Elev 1841 ft 35.96 °N, 85.00 °W | Updated 2 minutes ago

Overcast
Overcast
77.7 °F
Feels Like 80 °F
N
8.9
Wind Variable Wind from South

Today
High -- | Low -- °F
--% Chance of Precip.
Yesterday
High -- | Low -- °F
Precip. -- in
Pressure 30.00 in
Visibility 6.0 miles
Clouds Few 1400 ft
Mostly Cloudy 2100 ft
Overcast 4800 ft
Heat Index 80 °F
Dew Point 72 °F
Humidity 83%
Rainfall 0.00 in
Snow Depth Not available.
5:44 AM 7:47 PM
Waning Crescent, 30% visible
SPECI KCSV 281709Z AUTO 00000KT 6SM BR FEW014 BKN021 OVC048 24/22 A3000 RMK AO2 RAB1655E08 P0002 T02390222
Pressure 30.00 in
Visibility 6.0 miles
Clouds Few 1400 ft
Mostly Cloudy 2100 ft
Overcast 4800 ft
Heat Index 80 °F
Dew Point 72 °F
Humidity 83%
Rainfall 0.00 in
Snow Depth Not available.
5:44 AM 7:47 PM
Waning Crescent, 30% visible
SPECI KCSV 281709Z AUTO 00000KT 6SM BR FEW014 BKN021 OVC048 24/22 A3000 RMK AO2 RAB1655E08 P0002 T02390222

10-Day Weather Forecast

Almanac

Astronomy

Jul. 28, 2016 Rise Set
Actual Time
Civil Twilight
Nautical Twilight
Astronomical Twilight
Moon
Length of Visible Light
Length of Day
Tomorrow will be .
, % of the Moon is Illuminated

Today's Extremes

State Highs State Lows

Community

WunderPhotos

Upload Photos

1,928,163 photos uploaded!

WunderBlog® & News

Nearby

Air Quality

  Air Quality AQ Index Pollutant
Not available.

Snow Depth

Station Depth Elevation

Earthquake Activity

City Distance Mag. Time & Date
Minimum magnitude displayed is 2.5.

Coastal Water Temperatures

Place Temperature

Stations

Nearby Weather Stations

Station Location Temp. Windchill Dew Point Humidity Wind Precip. Elev Updated Type
                   

Watches & Warnings

There are currently no watches in effect.